Loodiep — A8ZO7 — position and weather

sailwx.info

Track history (hours):
 
Tides and Currents Weather Stations Pressure Air Temp Water Temp Dewpoint Dewpoint Depression Visibility Wind Speed Wind Dir Waves Ship Positions

Loodiep

Last reported at 2016-Sep-26 20:33 UTC. Time now 2016-Sep-26 22:34 UTC.
Position N 36°23' E 014°04'.

Length 108 m; draft 7.2 m.

Type: Cargo ship. MMSI: 636015263.

Date/timePositionNaut miles runAvg speedWind from/ knotsBaromVisibWave heightAir tempDewpointWater temp
2016-Sep-26 20:33N 36°23' E 014°04'  
2016-Sep-23 09:03N 36°16' W 002°02'398 8.4
2016-Sep-21 09:33N 38°17' W 009°59'9 9.5
2016-Sep-21 08:33N 38°26' W 010°01'  
2016-Sep-18 02:32N 49°22' W 004°32'1110.3
2016-Sep-18 01:27N 49°28' W 004°17'3311.3
2016-Sep-17 22:33N 49°45' W 003°34'10 9.8
2016-Sep-17 21:33N 49°50' W 003°21'8 8.4
2016-Sep-17 20:33N 49°53' W 003°09'9 7.1
2016-Sep-17 19:16N 49°58' W 002°57'10110.0
2016-Sep-17 09:11N 50°27' W 000°27'4 6.3
2016-Sep-17 08:33N 50°28' W 000°20'7 6.7
2016-Sep-17 07:34N 50°30' W 000°10'18 8.8
2016-Sep-17 05:33N 50°35' E 000°16'48 9.5
2016-Sep-17 00:33N 51°00' E 001°20'  
Track history (hours):
 
Tides and Currents Weather Stations Pressure Air Temp Water Temp Dewpoint Dewpoint Depression Visibility Wind Speed Wind Dir Waves Ship Positions

Loodiep

Last reported at 2016-Sep-26 20:33 UTC. Time now 2016-Sep-26 22:34 UTC.
Position N 36°23' E 014°04'.

Length 108 m; draft 7.2 m.

Type: Cargo ship. MMSI: 636015263.

Date/timePositionNaut miles runAvg speedWind from/ knotsBaromVisibWave heightAir tempDewpointWater temp
2016-Sep-26 20:33N 36°23' E 014°04'  
2016-Sep-23 09:03N 36°16' W 002°02'398 8.4
2016-Sep-21 09:33N 38°17' W 009°59'9 9.5
2016-Sep-21 08:33N 38°26' W 010°01'  
2016-Sep-18 02:32N 49°22' W 004°32'1110.3
2016-Sep-18 01:27N 49°28' W 004°17'3311.3
2016-Sep-17 22:33N 49°45' W 003°34'10 9.8
2016-Sep-17 21:33N 49°50' W 003°21'8 8.4
2016-Sep-17 20:33N 49°53' W 003°09'9 7.1
2016-Sep-17 19:16N 49°58' W 002°57'10110.0
2016-Sep-17 09:11N 50°27' W 000°27'4 6.3
2016-Sep-17 08:33N 50°28' W 000°20'7 6.7
2016-Sep-17 07:34N 50°30' W 000°10'18 8.8
2016-Sep-17 05:33N 50°35' E 000°16'48 9.5
2016-Sep-17 00:33N 51°00' E 001°20'  

Dump ship's entire track history